Rices Mills, Vermont
Current Conditions -  °F | °C
As of 4:53 PM on Tuesday 25 Nov 2014 (Local Time) from KLEB Reporting Station
Clear Clear  
Wind Chill: 44°   Ceiling: Unl
Heat Index: 46°   Visibility: 10mi
Dew Point: 25°   Wind: 5mph
Humidity: 44%   Direction: 180°S
Pressure: 29.94"   Gusts: NA
Location:  43.8204°N, 72.274°W
Report Text: KLEB 252153Z 18004KT 10SM CLR 08/M04 A2994 RMK AO2 SLP136 T00781039
Loading
Personal Weather Stations






























Interactive Weather Map New forecast layout! Learn more

10-Day Weather Forecast

Advertisements
Track Severe Weather on mobile